Time;durP1;ratioP1;P1;durP2;ratioP2;P2;SDS_P1;SDS_P2;PMS_P1;PMS_P2;Temp;Humidity;BMP_temperature;BMP_pressure;BME280_temperature;BME280_humidity;BME280_pressure;Samples;Min_cycle;Max_cycle;Signal;HPM_P1;HPM_P2
2022/09/25 00:09:20;;;;;;;6.05;5.10;;;;;;;11.21;100.00;97376.38;18487407;32;20048;-63
2022/09/25 00:29:44;;;;;;;5.22;4.70;;;;;;;11.30;100.00;97368.47;18362511;32;20065;-63
2022/09/25 00:39:47;;;;;;;6.57;4.45;;;;;;;11.31;100.00;97389.03;18361693;32;20066;-63
2022/09/25 00:49:52;;;;;;;3.92;3.50;;;;;;;11.22;100.00;97336.59;18361276;32;20070;-63
2022/09/25 01:00:01;;;;;;;4.90;3.00;;;;;;;11.15;100.00;97345.00;18469798;32;20323;-63
2022/09/25 01:10:07;;;;;;;2.80;2.53;;;;;;;11.11;100.00;97344.75;18498256;32;20393;-63
2022/09/25 01:20:20;;;;;;;4.33;2.77;;;;;;;10.96;100.00;97342.16;18497778;32;20381;-63
2022/09/25 01:30:23;;;;;;;2.80;2.50;;;;;;;10.92;100.00;97333.81;18497105;32;20060;-63
2022/09/25 01:40:57;;;;;;;2.57;2.37;;;;;;;10.89;100.00;97342.47;18496760;32;20049;-63
2022/09/25 01:51:33;;;;;;;3.13;2.40;;;;;;;10.84;100.00;97331.72;18495937;32;20061;-64
2022/09/25 02:01:41;;;;;;;2.73;2.27;;;;;;;10.81;100.00;97327.66;18494945;32;20105;-63
2022/09/25 02:11:49;;;;;;;3.17;2.70;;;;;;;10.76;100.00;97322.28;18495548;32;20449;-63
2022/09/25 02:22:23;;;;;;;3.10;2.80;;;;;;;10.79;100.00;97308.19;18488456;32;20473;-63
2022/09/25 02:32:30;;;;;;;2.87;2.57;;;;;;;10.84;100.00;97324.38;18494516;32;20061;-63
2022/09/25 02:43:07;;;;;;;6.20;4.47;;;;;;;10.91;100.00;97312.44;18480219;32;20437;-63
2022/09/25 02:53:32;;;;;;;5.43;4.23;;;;;;;10.95;100.00;97324.31;18494409;32;20362;-63
2022/09/25 03:03:36;;;;;;;;;;;;;;;10.98;100.00;97315.66;18500148;32;20064;-63
2022/09/25 03:13:39;;;;;;;4.57;3.70;;;;;;;10.90;100.00;97322.47;18503523;32;19959;-63
2022/09/25 03:23:42;;;;;;;5.22;4.55;;;;;;;10.95;100.00;97321.59;18486663;32;20114;-63
2022/09/25 03:33:46;;;;;;;5.30;4.47;;;;;;;10.83;100.00;97311.94;18503864;32;20441;-63
2022/09/25 03:43:50;;;;;;;3.67;3.25;;;;;;;10.91;100.00;97315.97;18503234;32;20057;-63
2022/09/25 03:53:53;;;;;;;4.10;3.37;;;;;;;10.87;100.00;97312.22;18488357;32;20061;-63
2022/09/25 04:03:56;;;;;;;4.47;3.25;;;;;;;10.82;100.00;97314.94;18501835;32;20065;-63
2022/09/25 04:13:58;;;;;;;4.75;3.97;;;;;;;10.77;100.00;97315.78;18299585;32;20078;-63
2022/09/25 04:34:22;;;;;;;4.50;3.40;;;;;;;10.94;100.00;97311.91;18299027;32;20138;-63
2022/09/25 04:44:25;;;;;;;3.87;3.17;;;;;;;10.95;100.00;97318.91;18391146;32;20073;-63
2022/09/25 04:54:27;;;;;;;4.03;3.58;;;;;;;10.99;100.00;97317.25;18424971;32;20057;-63
2022/09/25 05:04:30;;;;;;;5.87;4.45;;;;;;;10.98;100.00;97334.59;18424119;32;20053;-63
2022/09/25 05:14:32;;;;;;;6.67;4.50;;;;;;;10.95;100.00;97341.37;18425422;32;20073;-63
2022/09/25 05:24:37;;;;;;;5.37;4.30;;;;;;;10.92;100.00;97351.94;18432203;32;20053;-63
2022/09/25 05:34:40;;;;;;;6.80;4.50;;;;;;;10.92;100.00;97346.50;18432320;32;20082;-63
2022/09/25 05:44:42;;;;;;;6.05;4.85;;;;;;;10.86;100.00;97345.75;18431941;32;20132;-63
2022/09/25 05:54:45;;;;;;;7.68;4.80;;;;;;;10.87;100.00;97341.13;18431787;32;20057;-63
2022/09/25 06:04:47;;;;;;;6.78;3.97;;;;;;;10.93;100.00;97350.84;18468414;32;20049;-63
2022/09/25 06:14:51;;;;;;;6.80;4.95;;;;;;;10.96;100.00;97352.97;18495620;32;20053;-63
2022/09/25 06:24:53;;;;;;;7.20;4.90;;;;;;;10.92;100.00;97368.16;18481133;32;20104;-63
2022/09/25 06:34:56;;;;;;;7.93;5.40;;;;;;;10.85;100.00;97369.28;18497876;32;20072;-63
2022/09/25 06:44:58;;;;;;;7.70;5.85;;;;;;;10.89;100.00;97364.09;18507039;32;20102;-64
2022/09/25 06:55:00;;;;;;;9.15;6.47;;;;;;;10.93;100.00;97361.66;18499535;32;20049;-63
2022/09/25 07:05:03;;;;;;;7.57;5.45;;;;;;;11.03;100.00;97369.72;18505250;32;20057;-63
2022/09/25 07:15:06;;;;;;;6.62;4.97;;;;;;;11.11;100.00;97362.91;18303273;32;20073;-63
2022/09/25 07:25:10;;;;;;;7.15;4.22;;;;;;;11.22;100.00;97382.59;18302843;32;20072;-63
2022/09/25 07:35:13;;;;;;;7.20;5.70;;;;;;;11.31;100.00;97376.28;18289359;32;20127;-63
2022/09/25 07:45:15;;;;;;;6.07;4.32;;;;;;;11.47;100.00;97384.28;18331045;32;20072;-63
2022/09/25 07:55:18;;;;;;;5.82;4.57;;;;;;;11.65;100.00;97388.22;18502429;32;20403;-63
2022/09/25 08:05:21;;;;;;;7.20;5.20;;;;;;;11.84;100.00;97394.56;18502008;32;20045;-63
2022/09/25 08:15:24;;;;;;;6.03;4.72;;;;;;;12.29;100.00;97397.13;18299564;32;20092;-63
2022/09/25 08:25:27;;;;;;;6.57;4.90;;;;;;;12.42;100.00;97394.81;18299351;32;20456;-63
2022/09/25 08:35:30;;;;;;;9.30;5.20;;;;;;;12.52;100.00;97398.19;18298755;32;20065;-63
2022/09/25 08:56:14;;;;;;;9.05;5.85;;;;;;;12.82;100.00;97400.84;18498889;32;20334;-63
2022/09/25 09:06:17;;;;;;;8.43;5.70;;;;;;;13.09;100.00;97402.09;18498454;32;20046;-63
2022/09/25 09:16:34;;;;;;;8.03;5.53;;;;;;;13.32;100.00;97394.97;18497687;32;20464;-63
2022/09/25 09:27:14;;;;;;;8.20;5.10;;;;;;;13.36;100.00;97399.56;18497387;32;20057;-63
2022/09/25 09:37:51;;;;;;;7.90;5.50;;;;;;;13.73;100.00;97397.06;18482633;32;20069;-63
2022/09/25 09:48:13;;;;;;;11.70;5.97;;;;;;;14.30;100.00;97393.38;18496214;32;20108;-63
2022/09/25 09:58:57;;;;;;;7.25;5.43;;;;;;;14.44;100.00;97388.75;18496143;32;20505;-63
2022/09/25 10:09:00;;;;;;;8.60;6.50;;;;;;;14.48;100.00;97400.63;18483572;32;20098;-63
2022/09/25 10:19:20;;;;;;;9.23;7.12;;;;;;;14.36;100.00;97394.87;18370718;32;20127;-64
2022/09/25 10:29:27;;;;;;;8.85;5.97;;;;;;;14.04;100.00;97391.94;18369780;32;20073;-61
2022/09/25 10:39:32;;;;;;;9.52;6.35;;;;;;;14.62;100.00;97378.06;18356508;32;20106;-64
2022/09/25 11:00:25;;;;;;;5.65;4.50;;;;;;;15.98;98.17;97378.25;18491694;32;20044;-64
2022/09/25 11:10:35;;;;;;;5.22;3.80;;;;;;;15.96;97.29;97375.84;18491579;32;20366;-64
2022/09/25 11:20:41;;;;;;;7.28;5.03;;;;;;;16.46;94.77;97383.00;18490690;32;20052;-64
2022/09/25 11:31:02;;;;;;;;;;;;;;;16.56;93.23;97382.69;18504537;32;20108;-61
2022/09/25 11:41:21;;;;;;;6.60;5.32;;;;;;;16.09;87.97;97376.91;18490535;32;19966;-62
2022/09/25 11:51:55;;;;;;;10.20;6.93;;;;;;;16.29;92.83;97378.25;18503304;32;20109;-61
2022/09/25 12:02:12;;;;;;;9.27;7.05;;;;;;;16.40;92.55;97370.59;18488067;32;20437;-62
2022/09/25 12:12:31;;;;;;;8.77;6.68;;;;;;;16.60;85.25;97374.69;18502005;32;20056;-62
2022/09/25 12:23:04;;;;;;;8.25;5.60;;;;;;;16.96;85.62;97372.88;18480366;32;20061;-62
2022/09/25 12:33:48;;;;;;;4.83;3.93;;;;;;;17.23;87.20;97364.37;18500408;32;20049;-62
2022/09/25 12:44:22;;;;;;;2.73;2.10;;;;;;;17.30;80.16;97357.63;18362195;32;20497;-62
2022/09/25 12:54:44;;;;;;;3.70;1.90;;;;;;;17.58;82.03;97361.63;18361490;32;20073;-62
2022/09/25 13:05:04;;;;;;;2.37;1.50;;;;;;;17.58;76.67;97369.00;18347550;32;20131;-61
2022/09/25 13:15:34;;;;;;;1.98;1.40;;;;;;;17.33;80.95;97349.56;18378891;32;20058;-62
2022/09/25 13:25:47;;;;;;;2.33;1.70;;;;;;;17.28;80.15;97347.81;18431865;32;20106;-62
2022/09/25 13:36:15;;;;;;;2.73;1.70;;;;;;;17.45;81.41;97344.25;18418336;32;20064;-62
2022/09/25 13:46:22;;;;;;;3.20;1.52;;;;;;;17.62;80.57;97340.72;18430243;32;20079;-62
2022/09/25 13:56:47;;;;;;;2.75;1.35;;;;;;;17.56;77.07;97336.53;18431428;32;20065;-62
2022/09/25 14:06:55;;;;;;;2.92;1.52;;;;;;;17.31;78.14;97345.56;18475970;32;20045;-61
2022/09/25 14:16:59;;;;;;;1.55;1.42;;;;;;;17.26;83.24;97344.59;18481786;32;20396;-63
2022/09/25 14:27:02;;;;;;;5.18;2.03;;;;;;;17.11;86.61;97336.88;18481029;32;20053;-62
2022/09/25 14:37:14;;;;;;;3.37;2.37;;;;;;;16.71;82.64;97334.25;18467551;32;20053;-62
2022/09/25 14:47:19;;;;;;;3.15;2.47;;;;;;;16.53;87.32;97334.22;18494473;32;20073;-61
2022/09/25 14:57:29;;;;;;;3.03;2.42;;;;;;;16.34;92.40;97330.94;18472627;32;20053;-62
2022/09/25 15:07:31;;;;;;;2.92;2.20;;;;;;;16.20;94.21;97331.84;18439762;32;20083;-61
2022/09/25 15:17:52;;;;;;;3.50;2.45;;;;;;;16.17;96.54;97328.94;18440803;32;20073;-62
2022/09/25 15:27:54;;;;;;;4.50;2.90;;;;;;;16.09;96.65;97319.63;18440183;32;20072;-61
2022/09/25 15:38:11;;;;;;;4.45;2.25;;;;;;;15.96;96.90;97326.78;18439308;32;20053;-62
2022/09/25 15:48:20;;;;;;;3.83;2.25;;;;;;;15.86;98.35;97327.06;18439063;32;20088;-64
2022/09/25 15:58:22;;;;;;;3.17;2.45;;;;;;;15.75;99.40;97318.31;18437116;32;20053;-64
2022/09/25 16:08:31;;;;;;;3.62;2.67;;;;;;;15.87;100.00;97309.59;18423022;32;20468;-64
2022/09/25 16:18:39;;;;;;;3.90;2.65;;;;;;;15.82;98.22;97315.16;18436027;32;20174;-64
2022/09/25 16:28:52;;;;;;;2.70;2.40;;;;;;;15.75;98.99;97310.13;18436507;32;20056;-62
2022/09/25 16:39:06;;;;;;;2.50;2.30;;;;;;;15.36;99.02;97317.91;18435734;32;20087;-62
2022/09/25 16:49:10;;;;;;;3.10;2.35;;;;;;;14.96;100.00;97325.91;18434435;32;20053;-62
2022/09/25 16:59:23;;;;;;;2.65;2.05;;;;;;;14.65;100.00;97333.94;18436759;32;20089;-62
2022/09/25 17:09:27;;;;;;;2.35;2.15;;;;;;;14.32;100.00;97332.16;18360211;32;20078;-62
2022/09/25 17:19:30;;;;;;;;;;;;;;;13.93;100.00;97336.13;18231959;32;20242;-62
2022/09/25 17:29:34;;;;;;;2.90;2.60;;;;;;;13.61;100.00;97340.50;18232655;32;19961;-62
2022/09/25 17:39:38;;;;;;;3.62;2.35;;;;;;;13.41;100.00;97352.50;18250788;32;20059;-62
2022/09/25 17:49:40;;;;;;;2.97;2.20;;;;;;;13.04;100.00;97365.00;18366470;32;20096;-62
2022/09/25 17:59:43;;;;;;;5.45;2.35;;;;;;;12.75;100.00;97368.62;18481427;32;20073;-64
2022/09/25 18:09:45;;;;;;;4.57;2.42;;;;;;;12.51;100.00;97385.75;18357442;32;20096;-64
2022/09/25 18:30:17;;;;;;;5.15;3.72;;;;;;;12.22;100.00;97399.34;18359469;32;20073;-64
2022/09/25 18:40:20;;;;;;;5.40;3.83;;;;;;;12.23;100.00;97395.56;18396329;32;20449;-64
2022/09/25 18:50:23;;;;;;;4.97;3.70;;;;;;;12.26;100.00;97405.00;18492934;32;20068;-64
2022/09/25 19:00:26;;;;;;;6.90;3.47;;;;;;;12.17;100.00;97400.22;18506182;32;20445;-64
2022/09/25 19:10:30;;;;;;;6.25;3.08;;;;;;;12.05;100.00;97410.66;18505883;32;20068;-64
2022/09/25 19:20:33;;;;;;;4.10;2.87;;;;;;;11.87;100.00;97412.94;18505732;32;20109;-64
2022/09/25 19:30:36;;;;;;;4.35;3.17;;;;;;;11.71;100.00;97411.44;18504519;32;20049;-64
2022/09/25 19:40:39;;;;;;;5.37;2.97;;;;;;;11.62;100.00;97423.97;18503203;32;20078;-64
2022/09/25 19:50:42;;;;;;;7.05;4.93;;;;;;;11.64;100.00;97432.63;18489228;32;20056;-64
2022/09/25 20:00:46;;;;;;;5.62;4.62;;;;;;;11.75;100.00;97466.69;18301151;32;20062;-64
2022/09/25 20:10:49;;;;;;;5.60;4.22;;;;;;;11.89;100.00;97466.84;18300959;32;20452;-64
2022/09/25 20:20:51;;;;;;;4.93;3.60;;;;;;;11.99;100.00;97472.22;18300070;32;20089;-64
2022/09/25 20:30:54;;;;;;;5.43;4.15;;;;;;;12.04;100.00;97479.47;18407988;32;20108;-64
2022/09/25 20:40:59;;;;;;;5.57;4.20;;;;;;;12.10;100.00;97477.53;18434490;32;20065;-64
2022/09/25 20:51:08;;;;;;;8.82;4.53;;;;;;;12.14;100.00;97471.28;18435228;32;20118;-64
2022/09/25 21:01:13;;;;;;;5.60;4.75;;;;;;;12.16;100.00;97476.41;18449293;32;20379;-64
2022/09/25 21:11:17;;;;;;;5.20;4.18;;;;;;;12.18;100.00;97479.63;18484658;32;20060;-64
2022/09/25 21:21:22;;;;;;;5.27;3.60;;;;;;;12.18;100.00;97472.31;18484675;32;20045;-63
2022/09/25 21:31:27;;;;;;;4.63;3.20;;;;;;;12.19;100.00;97465.00;18482850;32;20057;-64
2022/09/25 21:41:30;;;;;;;6.37;3.25;;;;;;;12.22;100.00;97463.63;18482990;32;20057;-64
2022/09/25 21:51:42;;;;;;;4.82;3.72;;;;;;;12.10;100.00;97459.38;18496197;32;20053;-63
2022/09/25 22:01:44;;;;;;;5.57;4.18;;;;;;;12.10;100.00;97451.25;18481801;32;20086;-64
2022/09/25 22:11:47;;;;;;;5.03;3.75;;;;;;;12.10;100.00;97453.13;18495166;32;20052;-64
2022/09/25 22:21:52;;;;;;;6.25;4.18;;;;;;;11.97;100.00;97457.31;18461937;32;20094;-63
2022/09/25 22:31:54;;;;;;;6.10;4.12;;;;;;;12.00;100.00;97456.75;18495128;32;20053;-64
2022/09/25 22:41:57;;;;;;;4.78;3.70;;;;;;;11.95;100.00;97459.50;18494763;32;20065;-64
2022/09/25 22:52:00;;;;;;;7.18;5.00;;;;;;;11.96;100.00;97453.00;18494428;32;20421;-63
2022/09/25 23:02:02;;;;;;;4.12;3.67;;;;;;;11.96;100.00;97445.69;18467154;32;20052;-64
2022/09/25 23:12:05;;;;;;;7.62;3.65;;;;;;;11.85;100.00;97446.81;18479589;32;20463;-64
2022/09/25 23:22:07;;;;;;;6.90;3.50;;;;;;;11.86;100.00;97441.13;18487192;32;20049;-64
2022/09/25 23:32:09;;;;;;;6.82;3.40;;;;;;;11.88;100.00;97432.72;18504471;32;20357;-64
2022/09/25 23:42:11;;;;;;;4.70;3.37;;;;;;;11.88;100.00;97421.91;18489805;32;20061;-64
2022/09/25 23:52:14;;;;;;;7.57;3.22;;;;;;;11.79;100.00;97418.16;18489528;32;20071;-64
